sensor_id;sensor_type;location;lat;lon;timestamp;pressure;altitude;pressure_sealevel;temperature;humidity
72721;BME280;60835;50.974;10.322;2023-09-08T00:00:12;98018.00;;;15.19;100.00
72721;BME280;60835;50.974;10.322;2023-09-08T00:02:39;98024.91;;;15.14;100.00
72721;BME280;60835;50.974;10.322;2023-09-08T00:05:06;98031.16;;;15.00;100.00
72721;BME280;60835;50.974;10.322;2023-09-08T00:07:32;98035.06;;;15.04;100.00
72721;BME280;60835;50.974;10.322;2023-09-08T00:09:59;98030.66;;;14.90;100.00
72721;BME280;60835;50.974;10.322;2023-09-08T00:12:26;98007.06;;;14.87;100.00
72721;BME280;60835;50.974;10.322;2023-09-08T00:14:53;98012.44;;;14.93;100.00
72721;BME280;60835;50.974;10.322;2023-09-08T00:17:20;98023.88;;;14.87;100.00
72721;BME280;60835;50.974;10.322;2023-09-08T00:19:46;97999.41;;;14.77;100.00
72721;BME280;60835;50.974;10.322;2023-09-08T00:22:13;98015.19;;;14.79;100.00
72721;BME280;60835;50.974;10.322;2023-09-08T00:24:39;97998.44;;;14.85;100.00
72721;BME280;60835;50.974;10.322;2023-09-08T00:27:06;98013.97;;;14.81;100.00
72721;BME280;60835;50.974;10.322;2023-09-08T00:29:32;98009.16;;;14.70;100.00
72721;BME280;60835;50.974;10.322;2023-09-08T00:31:59;98008.84;;;14.80;100.00
72721;BME280;60835;50.974;10.322;2023-09-08T00:34:26;97986.28;;;14.54;100.00
72721;BME280;60835;50.974;10.322;2023-09-08T00:36:53;98013.13;;;14.59;100.00
72721;BME280;60835;50.974;10.322;2023-09-08T00:39:20;98009.09;;;14.63;100.00
72721;BME280;60835;50.974;10.322;2023-09-08T00:41:46;98014.19;;;14.58;100.00
72721;BME280;60835;50.974;10.322;2023-09-08T00:44:13;98001.72;;;14.44;100.00
72721;BME280;60835;50.974;10.322;2023-09-08T00:46:40;98006.94;;;14.52;100.00
72721;BME280;60835;50.974;10.322;2023-09-08T00:49:06;97982.09;;;14.45;100.00
72721;BME280;60835;50.974;10.322;2023-09-08T00:51:35;98010.09;;;14.41;100.00
72721;BME280;60835;50.974;10.322;2023-09-08T00:54:06;97991.84;;;14.38;100.00
72721;BME280;60835;50.974;10.322;2023-09-08T00:56:32;97977.16;;;14.42;100.00
72721;BME280;60835;50.974;10.322;2023-09-08T00:58:59;97969.53;;;14.39;100.00
72721;BME280;60835;50.974;10.322;2023-09-08T01:01:26;97931.09;;;14.27;100.00
72721;BME280;60835;50.974;10.322;2023-09-08T01:03:53;97966.50;;;14.42;100.00
72721;BME280;60835;50.974;10.322;2023-09-08T01:06:20;97967.06;;;14.38;100.00
72721;BME280;60835;50.974;10.322;2023-09-08T01:08:47;97979.44;;;14.31;100.00
72721;BME280;60835;50.974;10.322;2023-09-08T01:11:14;97964.97;;;14.33;100.00
72721;BME280;60835;50.974;10.322;2023-09-08T01:13:43;97963.97;;;14.34;100.00
72721;BME280;60835;50.974;10.322;2023-09-08T01:16:09;97971.38;;;14.39;100.00
72721;BME280;60835;50.974;10.322;2023-09-08T01:18:37;97977.94;;;14.43;100.00
72721;BME280;60835;50.974;10.322;2023-09-08T01:23:52;97990.56;;;14.34;100.00
72721;BME280;60835;50.974;10.322;2023-09-08T01:26:27;97980.19;;;14.39;100.00
72721;BME280;60835;50.974;10.322;2023-09-08T01:28:59;97981.69;;;14.48;100.00
72721;BME280;60835;50.974;10.322;2023-09-08T01:31:26;97983.94;;;14.30;100.00
72721;BME280;60835;50.974;10.322;2023-09-08T01:33:54;97965.16;;;14.32;100.00
72721;BME280;60835;50.974;10.322;2023-09-08T01:36:21;97966.72;;;14.26;100.00
72721;BME280;60835;50.974;10.322;2023-09-08T01:38:47;97970.13;;;14.20;100.00
72721;BME280;60835;50.974;10.322;2023-09-08T01:41:14;97960.34;;;14.06;100.00
72721;BME280;60835;50.974;10.322;2023-09-08T01:43:41;97952.50;;;14.19;100.00
72721;BME280;60835;50.974;10.322;2023-09-08T01:46:08;97934.66;;;14.13;100.00
72721;BME280;60835;50.974;10.322;2023-09-08T01:48:34;97932.38;;;14.10;100.00
72721;BME280;60835;50.974;10.322;2023-09-08T01:51:01;97927.03;;;14.10;100.00
72721;BME280;60835;50.974;10.322;2023-09-08T01:53:28;97907.09;;;13.99;100.00
72721;BME280;60835;50.974;10.322;2023-09-08T01:55:54;97919.28;;;13.94;100.00
72721;BME280;60835;50.974;10.322;2023-09-08T01:58:21;97884.75;;;13.79;100.00
72721;BME280;60835;50.974;10.322;2023-09-08T02:00:49;97886.25;;;13.82;100.00
72721;BME280;60835;50.974;10.322;2023-09-08T02:03:17;97869.94;;;13.70;100.00
72721;BME280;60835;50.974;10.322;2023-09-08T02:05:44;97853.69;;;13.80;100.00
72721;BME280;60835;50.974;10.322;2023-09-08T02:08:11;97833.69;;;13.84;100.00
72721;BME280;60835;50.974;10.322;2023-09-08T02:10:39;97820.91;;;13.94;100.00
72721;BME280;60835;50.974;10.322;2023-09-08T02:13:06;97826.03;;;13.95;100.00
72721;BME280;60835;50.974;10.322;2023-09-08T02:15:35;97802.53;;;13.99;100.00
72721;BME280;60835;50.974;10.322;2023-09-08T02:18:03;97818.69;;;13.97;100.00
72721;BME280;60835;50.974;10.322;2023-09-08T02:20:29;97822.94;;;13.92;100.00
72721;BME280;60835;50.974;10.322;2023-09-08T02:22:57;97823.56;;;13.94;100.00
72721;BME280;60835;50.974;10.322;2023-09-08T02:25:24;97822.28;;;13.90;100.00
72721;BME280;60835;50.974;10.322;2023-09-08T02:27:51;97827.47;;;13.77;100.00
72721;BME280;60835;50.974;10.322;2023-09-08T02:30:18;97814.69;;;13.66;100.00
72721;BME280;60835;50.974;10.322;2023-09-08T02:32:44;97787.78;;;13.75;100.00
72721;BME280;60835;50.974;10.322;2023-09-08T02:35:12;97769.25;;;13.61;100.00
72721;BME280;60835;50.974;10.322;2023-09-08T02:37:38;97792.47;;;13.73;100.00
72721;BME280;60835;50.974;10.322;2023-09-08T02:40:06;97773.16;;;13.86;100.00
72721;BME280;60835;50.974;10.322;2023-09-08T02:42:33;97792.28;;;13.75;100.00
72721;BME280;60835;50.974;10.322;2023-09-08T02:44:59;97789.00;;;13.73;100.00
72721;BME280;60835;50.974;10.322;2023-09-08T02:47:26;97791.53;;;13.60;100.00
72721;BME280;60835;50.974;10.322;2023-09-08T02:49:52;97773.09;;;13.58;100.00
72721;BME280;60835;50.974;10.322;2023-09-08T02:52:19;97765.31;;;13.57;100.00
72721;BME280;60835;50.974;10.322;2023-09-08T02:54:47;97754.31;;;13.60;100.00
72721;BME280;60835;50.974;10.322;2023-09-08T02:57:14;97753.50;;;13.59;100.00
72721;BME280;60835;50.974;10.322;2023-09-08T02:59:40;97745.88;;;13.56;100.00
72721;BME280;60835;50.974;10.322;2023-09-08T03:02:06;97729.53;;;13.53;100.00
72721;BME280;60835;50.974;10.322;2023-09-08T03:04:33;97738.63;;;13.43;100.00
72721;BME280;60835;50.974;10.322;2023-09-08T03:07:00;97712.13;;;13.50;100.00
72721;BME280;60835;50.974;10.322;2023-09-08T03:09:26;97705.41;;;13.54;100.00
72721;BME280;60835;50.974;10.322;2023-09-08T03:11:53;97697.56;;;13.46;100.00
72721;BME280;60835;50.974;10.322;2023-09-08T03:14:19;97703.31;;;13.50;100.00
72721;BME280;60835;50.974;10.322;2023-09-08T03:16:46;97704.00;;;13.58;100.00
72721;BME280;60835;50.974;10.322;2023-09-08T03:19:14;97702.94;;;13.53;100.00
72721;BME280;60835;50.974;10.322;2023-09-08T03:21:40;97715.53;;;13.44;100.00
72721;BME280;60835;50.974;10.322;2023-09-08T03:24:07;97714.31;;;13.47;100.00
72721;BME280;60835;50.974;10.322;2023-09-08T03:26:33;97694.19;;;13.37;100.00
72721;BME280;60835;50.974;10.322;2023-09-08T03:29:00;97706.97;;;13.49;100.00
72721;BME280;60835;50.974;10.322;2023-09-08T03:31:26;97696.34;;;13.49;100.00
72721;BME280;60835;50.974;10.322;2023-09-08T03:33:54;97717.72;;;13.40;100.00
72721;BME280;60835;50.974;10.322;2023-09-08T03:36:21;97719.56;;;13.40;100.00
72721;BME280;60835;50.974;10.322;2023-09-08T03:38:47;97688.88;;;13.16;100.00
72721;BME280;60835;50.974;10.322;2023-09-08T03:41:14;97699.06;;;13.13;100.00
72721;BME280;60835;50.974;10.322;2023-09-08T03:43:41;97700.16;;;13.18;100.00
72721;BME280;60835;50.974;10.322;2023-09-08T03:46:07;97677.81;;;13.13;100.00
72721;BME280;60835;50.974;10.322;2023-09-08T03:48:34;97658.16;;;13.07;100.00
72721;BME280;60835;50.974;10.322;2023-09-08T03:51:01;97657.88;;;13.02;100.00
72721;BME280;60835;50.974;10.322;2023-09-08T03:53:27;97658.03;;;13.01;100.00
72721;BME280;60835;50.974;10.322;2023-09-08T03:55:54;97634.97;;;13.01;100.00
72721;BME280;60835;50.974;10.322;2023-09-08T03:58:20;97623.63;;;13.07;100.00
72721;BME280;60835;50.974;10.322;2023-09-08T04:00:47;97623.63;;;13.07;100.00
72721;BME280;60835;50.974;10.322;2023-09-08T04:03:14;97607.16;;;12.97;100.00
72721;BME280;60835;50.974;10.322;2023-09-08T04:05:41;97614.09;;;12.98;100.00
72721;BME280;60835;50.974;10.322;2023-09-08T04:08:07;97616.50;;;12.93;100.00
72721;BME280;60835;50.974;10.322;2023-09-08T04:10:34;97620.78;;;12.73;100.00
72721;BME280;60835;50.974;10.322;2023-09-08T04:13:01;97601.00;;;12.75;100.00
72721;BME280;60835;50.974;10.322;2023-09-08T04:15:27;97582.84;;;12.79;100.00
72721;BME280;60835;50.974;10.322;2023-09-08T04:17:54;97588.56;;;12.76;100.00
72721;BME280;60835;50.974;10.322;2023-09-08T04:20:20;97579.94;;;12.74;100.00
72721;BME280;60835;50.974;10.322;2023-09-08T04:22:47;97567.06;;;12.71;100.00
72721;BME280;60835;50.974;10.322;2023-09-08T04:25:14;97562.41;;;12.73;100.00
72721;BME280;60835;50.974;10.322;2023-09-08T04:27:40;97551.59;;;12.74;100.00
72721;BME280;60835;50.974;10.322;2023-09-08T04:30:07;97558.97;;;12.79;100.00
72721;BME280;60835;50.974;10.322;2023-09-08T04:32:35;97564.53;;;12.84;100.00
72721;BME280;60835;50.974;10.322;2023-09-08T04:35:05;97562.59;;;12.93;100.00
72721;BME280;60835;50.974;10.322;2023-09-08T04:37:33;97573.03;;;12.94;100.00
72721;BME280;60835;50.974;10.322;2023-09-08T04:40:00;97571.84;;;13.18;100.00
72721;BME280;60835;50.974;10.322;2023-09-08T04:42:27;97595.53;;;13.19;100.00
72721;BME280;60835;50.974;10.322;2023-09-08T04:44:54;97627.38;;;12.98;100.00
72721;BME280;60835;50.974;10.322;2023-09-08T04:47:20;97629.78;;;12.93;100.00
72721;BME280;60835;50.974;10.322;2023-09-08T04:49:47;97650.06;;;13.01;100.00
72721;BME280;60835;50.974;10.322;2023-09-08T04:52:13;97666.75;;;13.09;100.00
72721;BME280;60835;50.974;10.322;2023-09-08T04:54:41;97691.84;;;13.07;100.00
72721;BME280;60835;50.974;10.322;2023-09-08T04:57:07;97702.81;;;13.04;100.00
72721;BME280;60835;50.974;10.322;2023-09-08T04:59:54;97717.53;;;13.06;100.00
72721;BME280;60835;50.974;10.322;2023-09-08T05:02:23;97735.91;;;12.87;100.00
72721;BME280;60835;50.974;10.322;2023-09-08T05:04:50;97740.13;;;12.81;100.00
72721;BME280;60835;50.974;10.322;2023-09-08T05:07:16;97732.78;;;12.83;100.00
72721;BME280;60835;50.974;10.322;2023-09-08T05:09:45;97714.69;;;12.72;100.00
72721;BME280;60835;50.974;10.322;2023-09-08T05:12:11;97726.47;;;12.69;100.00
72721;BME280;60835;50.974;10.322;2023-09-08T05:14:38;97717.59;;;12.77;100.00
72721;BME280;60835;50.974;10.322;2023-09-08T05:17:04;97702.03;;;12.74;100.00
72721;BME280;60835;50.974;10.322;2023-09-08T05:19:31;97698.94;;;12.70;100.00
72721;BME280;60835;50.974;10.322;2023-09-08T05:21:57;97689.13;;;12.71;100.00
72721;BME280;60835;50.974;10.322;2023-09-08T05:24:24;97686.88;;;12.68;100.00
72721;BME280;60835;50.974;10.322;2023-09-08T05:26:57;97659.56;;;12.74;100.00
72721;BME280;60835;50.974;10.322;2023-09-08T05:29:24;97662.88;;;12.76;100.00
72721;BME280;60835;50.974;10.322;2023-09-08T05:31:51;97660.41;;;12.74;100.00
72721;BME280;60835;50.974;10.322;2023-09-08T05:34:18;97641.13;;;12.87;100.00
72721;BME280;60835;50.974;10.322;2023-09-08T05:36:45;97654.56;;;13.00;100.00
72721;BME280;60835;50.974;10.322;2023-09-08T05:39:13;97646.38;;;13.16;100.00
72721;BME280;60835;50.974;10.322;2023-09-08T05:41:40;97678.81;;;13.12;100.00
72721;BME280;60835;50.974;10.322;2023-09-08T05:44:07;97681.03;;;13.29;100.00
72721;BME280;60835;50.974;10.322;2023-09-08T05:46:33;97693.63;;;13.63;100.00
72721;BME280;60835;50.974;10.322;2023-09-08T05:49:00;97724.94;;;13.68;100.00
72721;BME280;60835;50.974;10.322;2023-09-08T05:51:27;97754.44;;;13.94;100.00
72721;BME280;60835;50.974;10.322;2023-09-08T05:53:53;97803.63;;;14.04;100.00
72721;BME280;60835;50.974;10.322;2023-09-08T05:56:20;97868.06;;;13.50;100.00
72721;BME280;60835;50.974;10.322;2023-09-08T05:58:47;97832.91;;;13.90;100.00
72721;BME280;60835;50.974;10.322;2023-09-08T06:01:15;97852.38;;;14.12;100.00
72721;BME280;60835;50.974;10.322;2023-09-08T06:03:42;97884.63;;;14.23;100.00
72721;BME280;60835;50.974;10.322;2023-09-08T06:06:09;97919.75;;;13.97;100.00
72721;BME280;60835;50.974;10.322;2023-09-08T06:08:36;97896.97;;;14.31;100.00
72721;BME280;60835;50.974;10.322;2023-09-08T06:11:03;97929.00;;;14.37;100.00
72721;BME280;60835;50.974;10.322;2023-09-08T06:13:29;97949.47;;;14.37;100.00
72721;BME280;60835;50.974;10.322;2023-09-08T06:15:56;97947.50;;;14.67;100.00
72721;BME280;60835;50.974;10.322;2023-09-08T06:18:23;97966.94;;;14.46;100.00
72721;BME280;60835;50.974;10.322;2023-09-08T06:20:49;97936.19;;;14.43;100.00
72721;BME280;60835;50.974;10.322;2023-09-08T06:23:19;97945.06;;;14.72;100.00
72721;BME280;60835;50.974;10.322;2023-09-08T06:25:46;97945.69;;;14.74;100.00
72721;BME280;60835;50.974;10.322;2023-09-08T06:28:12;97939.25;;;15.17;100.00
72721;BME280;60835;50.974;10.322;2023-09-08T06:30:39;97935.44;;;16.21;100.00
72721;BME280;60835;50.974;10.322;2023-09-08T06:33:09;98033.13;;;16.56;100.00
72721;BME280;60835;50.974;10.322;2023-09-08T06:35:36;98091.19;;;17.28;100.00
72721;BME280;60835;50.974;10.322;2023-09-08T06:38:02;98206.78;;;17.23;100.00
72721;BME280;60835;50.974;10.322;2023-09-08T06:40:29;98247.00;;;17.02;100.00
72721;BME280;60835;50.974;10.322;2023-09-08T06:42:55;98261.41;;;17.75;100.00
72721;BME280;60835;50.974;10.322;2023-09-08T06:45:26;98302.41;;;18.01;100.00
72721;BME280;60835;50.974;10.322;2023-09-08T06:47:53;98321.00;;;18.49;100.00
72721;BME280;60835;50.974;10.322;2023-09-08T06:50:23;98371.63;;;19.16;100.00
72721;BME280;60835;50.974;10.322;2023-09-08T06:52:50;98390.22;;;18.91;100.00
72721;BME280;60835;50.974;10.322;2023-09-08T06:55:16;98410.47;;;19.71;100.00
72721;BME280;60835;50.974;10.322;2023-09-08T06:57:43;98431.88;;;18.94;100.00
72721;BME280;60835;50.974;10.322;2023-09-08T07:00:12;98380.84;;;20.28;100.00
72721;BME280;60835;50.974;10.322;2023-09-08T07:02:40;98457.78;;;19.65;100.00
72721;BME280;60835;50.974;10.322;2023-09-08T07:05:07;98449.41;;;19.93;100.00
72721;BME280;60835;50.974;10.322;2023-09-08T07:07:35;98445.69;;;20.38;100.00
72721;BME280;60835;50.974;10.322;2023-09-08T07:10:05;98469.88;;;20.70;100.00
72721;BME280;60835;50.974;10.322;2023-09-08T07:12:31;98464.34;;;20.20;100.00
72721;BME280;60835;50.974;10.322;2023-09-08T07:14:58;98450.91;;;20.20;100.00
72721;BME280;60835;50.974;10.322;2023-09-08T07:17:26;98447.97;;;21.76;100.00
72721;BME280;60835;50.974;10.322;2023-09-08T07:19:53;98476.41;;;21.54;100.00
72721;BME280;60835;50.974;10.322;2023-09-08T07:22:19;98459.09;;;22.34;100.00
72721;BME280;60835;50.974;10.322;2023-09-08T07:24:46;98506.03;;;21.30;100.00
72721;BME280;60835;50.974;10.322;2023-09-08T07:27:13;98472.72;;;22.21;100.00
72721;BME280;60835;50.974;10.322;2023-09-08T07:29:41;98470.16;;;22.44;100.00
72721;BME280;60835;50.974;10.322;2023-09-08T07:32:08;98474.47;;;22.45;100.00
72721;BME280;60835;50.974;10.322;2023-09-08T07:34:35;98427.59;;;23.69;100.00
72721;BME280;60835;50.974;10.322;2023-09-08T07:37:02;98258.34;;;23.75;100.00
72721;BME280;60835;50.974;10.322;2023-09-08T07:39:28;98127.94;;;24.94;100.00
72721;BME280;60835;50.974;10.322;2023-09-08T07:41:55;99069.28;;;25.04;100.00
72721;BME280;60835;50.974;10.322;2023-09-08T07:44:27;99220.84;;;24.92;100.00
72721;BME280;60835;50.974;10.322;2023-09-08T07:46:53;99256.00;;;26.11;100.00
72721;BME280;60835;50.974;10.322;2023-09-08T07:49:23;99245.00;;;24.33;100.00
72721;BME280;60835;50.974;10.322;2023-09-08T07:51:50;99213.56;;;24.93;100.00
72721;BME280;60835;50.974;10.322;2023-09-08T07:54:18;99286.66;;;25.40;100.00
72721;BME280;60835;50.974;10.322;2023-09-08T07:56:48;99267.22;;;25.62;100.00
72721;BME280;60835;50.974;10.322;2023-09-08T07:59:15;99302.66;;;25.60;100.00
72721;BME280;60835;50.974;10.322;2023-09-08T08:01:42;99260.22;;;25.24;100.00
72721;BME280;60835;50.974;10.322;2023-09-08T08:04:08;99248.59;;;26.07;100.00
72721;BME280;60835;50.974;10.322;2023-09-08T08:06:35;99286.47;;;26.13;100.00
72721;BME280;60835;50.974;10.322;2023-09-08T08:09:02;99288.72;;;26.51;100.00
72721;BME280;60835;50.974;10.322;2023-09-08T08:11:29;99325.56;;;25.94;100.00
72721;BME280;60835;50.974;10.322;2023-09-08T08:13:55;99345.81;;;28.05;100.00
72721;BME280;60835;50.974;10.322;2023-09-08T08:16:23;99346.22;;;26.07;100.00
72721;BME280;60835;50.974;10.322;2023-09-08T08:18:52;99316.94;;;26.61;100.00
72721;BME280;60835;50.974;10.322;2023-09-08T08:21:19;99298.25;;;25.48;100.00
72721;BME280;60835;50.974;10.322;2023-09-08T08:23:46;99267.06;;;25.98;100.00
72721;BME280;60835;50.974;10.322;2023-09-08T08:26:12;99273.41;;;26.33;100.00
72721;BME280;60835;50.974;10.322;2023-09-08T08:28:39;99320.63;;;27.30;100.00
72721;BME280;60835;50.974;10.322;2023-09-08T08:31:05;99340.47;;;28.27;100.00
72721;BME280;60835;50.974;10.322;2023-09-08T08:33:32;99351.47;;;28.65;100.00
72721;BME280;60835;50.974;10.322;2023-09-08T08:35:59;99359.25;;;27.84;100.00
72721;BME280;60835;50.974;10.322;2023-09-08T08:38:27;99324.97;;;27.03;100.00
72721;BME280;60835;50.974;10.322;2023-09-08T08:40:53;99355.47;;;29.34;100.00
72721;BME280;60835;50.974;10.322;2023-09-08T08:43:21;99363.03;;;28.72;100.00
72721;BME280;60835;50.974;10.322;2023-09-08T08:45:49;99341.09;;;27.72;100.00
72721;BME280;60835;50.974;10.322;2023-09-08T08:48:18;99358.34;;;28.06;100.00
72721;BME280;60835;50.974;10.322;2023-09-08T08:50:47;99363.28;;;28.09;100.00
72721;BME280;60835;50.974;10.322;2023-09-08T08:53:17;99362.72;;;28.07;100.00
72721;BME280;60835;50.974;10.322;2023-09-08T08:55:44;99351.88;;;26.93;100.00
72721;BME280;60835;50.974;10.322;2023-09-08T08:58:13;99322.66;;;27.74;100.00
72721;BME280;60835;50.974;10.322;2023-09-08T09:00:42;99328.00;;;26.72;100.00
72721;BME280;60835;50.974;10.322;2023-09-08T09:03:09;99349.19;;;29.34;100.00
72721;BME280;60835;50.974;10.322;2023-09-08T09:05:41;99355.75;;;29.33;100.00
72721;BME280;60835;50.974;10.322;2023-09-08T09:08:15;99361.56;;;30.11;100.00
72721;BME280;60835;50.974;10.322;2023-09-08T09:10:43;99339.13;;;27.56;100.00
72721;BME280;60835;50.974;10.322;2023-09-08T09:13:09;99366.13;;;30.33;100.00
72721;BME280;60835;50.974;10.322;2023-09-08T09:15:38;99379.59;;;30.39;100.00
72721;BME280;60835;50.974;10.322;2023-09-08T09:18:06;99359.00;;;28.96;100.00
72721;BME280;60835;50.974;10.322;2023-09-08T09:20:33;99377.25;;;31.31;100.00
72721;BME280;60835;50.974;10.322;2023-09-08T09:23:00;99371.09;;;31.09;100.00
72721;BME280;60835;50.974;10.322;2023-09-08T09:25:28;99361.56;;;31.69;100.00
72721;BME280;60835;50.974;10.322;2023-09-08T09:28:01;99382.53;;;32.76;100.00
72721;BME280;60835;50.974;10.322;2023-09-08T09:30:47;99382.00;;;32.99;100.00
72721;BME280;60835;50.974;10.322;2023-09-08T09:33:15;99376.34;;;33.64;100.00
72721;BME280;60835;50.974;10.322;2023-09-08T09:35:48;99378.72;;;32.72;100.00
72721;BME280;60835;50.974;10.322;2023-09-08T09:38:16;99386.72;;;31.61;100.00
72721;BME280;60835;50.974;10.322;2023-09-08T09:40:47;99371.44;;;33.56;100.00
72721;BME280;60835;50.974;10.322;2023-09-08T09:43:15;99377.03;;;33.16;100.00
72721;BME280;60835;50.974;10.322;2023-09-08T09:45:43;99372.66;;;32.39;100.00
72721;BME280;60835;50.974;10.322;2023-09-08T09:48:11;99366.34;;;33.20;100.00
72721;BME280;60835;50.974;10.322;2023-09-08T09:50:40;99366.72;;;33.67;100.00
72721;BME280;60835;50.974;10.322;2023-09-08T09:53:17;99343.06;;;34.54;100.00
72721;BME280;60835;50.974;10.322;2023-09-08T09:55:45;99367.88;;;34.10;100.00
72721;BME280;60835;50.974;10.322;2023-09-08T09:58:12;99372.63;;;35.24;100.00
72721;BME280;60835;50.974;10.322;2023-09-08T10:00:43;99366.47;;;33.53;100.00
72721;BME280;60835;50.974;10.322;2023-09-08T10:03:15;99366.69;;;34.55;100.00
72721;BME280;60835;50.974;10.322;2023-09-08T10:05:42;99373.13;;;33.37;100.00
72721;BME280;60835;50.974;10.322;2023-09-08T10:08:08;99355.97;;;32.21;100.00
72721;BME280;60835;50.974;10.322;2023-09-08T10:10:35;99359.91;;;34.42;100.00
72721;BME280;60835;50.974;10.322;2023-09-08T10:13:06;99362.34;;;35.35;100.00
72721;BME280;60835;50.974;10.322;2023-09-08T10:15:34;99352.97;;;32.42;100.00
72721;BME280;60835;50.974;10.322;2023-09-08T10:18:04;99352.97;;;32.42;100.00
72721;BME280;60835;50.974;10.322;2023-09-08T10:20:33;99338.13;;;34.22;100.00
72721;BME280;60835;50.974;10.322;2023-09-08T10:23:27;99356.94;;;34.72;100.00
72721;BME280;60835;50.974;10.322;2023-09-08T10:26:02;99359.16;;;33.93;100.00
72721;BME280;60835;50.974;10.322;2023-09-08T10:28:32;99354.50;;;34.71;100.00
72721;BME280;60835;50.974;10.322;2023-09-08T10:31:00;99335.44;;;36.12;100.00
72721;BME280;60835;50.974;10.322;2023-09-08T10:33:27;99348.53;;;32.97;100.00
72721;BME280;60835;50.974;10.322;2023-09-08T10:35:55;99339.88;;;34.03;100.00
72721;BME280;60835;50.974;10.322;2023-09-08T10:38:27;99335.56;;;35.64;100.00
72721;BME280;60835;50.974;10.322;2023-09-08T10:43:46;99341.34;;;35.20;100.00
72721;BME280;60835;50.974;10.322;2023-09-08T10:46:22;99343.28;;;34.91;100.00
72721;BME280;60835;50.974;10.322;2023-09-08T10:48:53;99325.66;;;36.70;100.00
72721;BME280;60835;50.974;10.322;2023-09-08T10:51:24;99320.44;;;36.36;100.00
72721;BME280;60835;50.974;10.322;2023-09-08T10:53:51;99335.97;;;34.81;100.00
72721;BME280;60835;50.974;10.322;2023-09-08T10:56:18;99334.31;;;35.33;100.00
72721;BME280;60835;50.974;10.322;2023-09-08T10:58:54;99320.69;;;36.40;100.00
72721;BME280;60835;50.974;10.322;2023-09-08T11:01:23;99323.91;;;37.06;100.00
72721;BME280;60835;50.974;10.322;2023-09-08T11:03:54;99314.03;;;36.41;100.00
72721;BME280;60835;50.974;10.322;2023-09-08T11:06:22;99311.03;;;37.56;100.00
72721;BME280;60835;50.974;10.322;2023-09-08T11:08:49;99306.06;;;36.58;100.00
72721;BME280;60835;50.974;10.322;2023-09-08T11:11:22;99318.19;;;34.40;100.00
72721;BME280;60835;50.974;10.322;2023-09-08T11:13:48;99320.78;;;33.83;100.00
72721;BME280;60835;50.974;10.322;2023-09-08T11:16:15;99323.88;;;34.49;100.00
72721;BME280;60835;50.974;10.322;2023-09-08T11:18:44;99320.19;;;34.29;100.00
72721;BME280;60835;50.974;10.322;2023-09-08T11:21:10;99307.94;;;33.78;100.00
72721;BME280;60835;50.974;10.322;2023-09-08T11:23:38;99313.44;;;33.04;100.00
72721;BME280;60835;50.974;10.322;2023-09-08T11:26:05;99309.88;;;34.16;100.00
72721;BME280;60835;50.974;10.322;2023-09-08T11:28:33;99307.41;;;34.15;100.00
72721;BME280;60835;50.974;10.322;2023-09-08T11:31:01;99296.09;;;35.31;100.00
72721;BME280;60835;50.974;10.322;2023-09-08T11:33:34;99310.97;;;34.49;100.00
72721;BME280;60835;50.974;10.322;2023-09-08T11:36:01;99300.81;;;34.78;100.00
72721;BME280;60835;50.974;10.322;2023-09-08T11:38:28;99304.63;;;35.06;100.00
72721;BME280;60835;50.974;10.322;2023-09-08T11:40:57;99304.97;;;35.00;100.00
72721;BME280;60835;50.974;10.322;2023-09-08T11:43:27;99297.03;;;34.69;100.00
72721;BME280;60835;50.974;10.322;2023-09-08T11:45:56;99297.75;;;34.80;100.00
72721;BME280;60835;50.974;10.322;2023-09-08T11:48:24;99286.09;;;36.47;100.00
72721;BME280;60835;50.974;10.322;2023-09-08T11:50:55;99293.19;;;35.41;100.00
72721;BME280;60835;50.974;10.322;2023-09-08T11:53:22;99286.22;;;36.24;100.00
72721;BME280;60835;50.974;10.322;2023-09-08T11:55:49;99272.31;;;35.17;100.00
72721;BME280;60835;50.974;10.322;2023-09-08T11:58:18;99280.16;;;38.57;100.00
72721;BME280;60835;50.974;10.322;2023-09-08T12:00:45;99269.78;;;39.49;100.00
72721;BME280;60835;50.974;10.322;2023-09-08T12:03:12;99281.81;;;37.14;100.00
72721;BME280;60835;50.974;10.322;2023-09-08T12:05:40;99286.63;;;34.66;100.00
72721;BME280;60835;50.974;10.322;2023-09-08T12:08:07;99285.03;;;36.89;100.00
72721;BME280;60835;50.974;10.322;2023-09-08T12:10:38;99278.84;;;37.25;100.00
72721;BME280;60835;50.974;10.322;2023-09-08T12:13:06;99277.47;;;37.49;100.00
72721;BME280;60835;50.974;10.322;2023-09-08T12:15:40;99277.38;;;39.27;100.00
72721;BME280;60835;50.974;10.322;2023-09-08T12:18:12;99272.97;;;38.56;100.00
72721;BME280;60835;50.974;10.322;2023-09-08T12:20:39;99267.75;;;39.24;100.00
72721;BME280;60835;50.974;10.322;2023-09-08T12:23:18;99255.50;;;40.16;100.00
72721;BME280;60835;50.974;10.322;2023-09-08T12:25:52;99256.91;;;40.39;100.00
72721;BME280;60835;50.974;10.322;2023-09-08T12:28:20;99261.38;;;36.88;100.00
72721;BME280;60835;50.974;10.322;2023-09-08T12:30:48;99258.97;;;37.99;100.00
72721;BME280;60835;50.974;10.322;2023-09-08T12:33:16;99275.66;;;35.14;100.00
72721;BME280;60835;50.974;10.322;2023-09-08T12:35:47;99274.91;;;35.88;100.00
72721;BME280;60835;50.974;10.322;2023-09-08T12:38:14;99267.50;;;38.33;100.00
72721;BME280;60835;50.974;10.322;2023-09-08T12:40:42;99267.47;;;37.40;100.00
72721;BME280;60835;50.974;10.322;2023-09-08T12:43:14;99256.81;;;36.51;100.00
72721;BME280;60835;50.974;10.322;2023-09-08T12:45:52;99261.03;;;36.30;100.00
72721;BME280;60835;50.974;10.322;2023-09-08T12:48:19;99251.72;;;38.12;100.00